Time;durP1;ratioP1;P1;durP2;ratioP2;P2;SDS_P1;SDS_P2;PMS_P1;PMS_P2;Temp;Humidity;BMP_temperature;BMP_pressure;BME280_temperature;BME280_humidity;BME280_pressure;Samples;Min_cycle;Max_cycle;Signal;HPM_P1;HPM_P2
2022/06/12 10:35:06;;;;;;;;;;;27.90;47.60;;;-144.05;25.96;125687.94;6188293;23;19920;-88
2022/06/12 10:38:42;;;;;;;;;;;27.70;47.60;;;-144.05;26.47;125687.94;6115265;23;20313;-90
2022/06/12 10:53:53;;;;;;;;;;;28.50;49.90;;;-144.05;26.10;125687.94;6068093;23;19983;-86
2022/06/12 10:57:52;;;;;;;;;;;28.80;48.20;;;-144.05;25.84;125687.94;5931547;24;19911;-86
2022/06/12 11:09:06;;;;;;;;;;;28.30;47.30;;;-144.05;27.46;125687.94;5819909;24;20000;-89
2022/06/12 11:12:50;;;;;;;;;;;28.60;52.40;;;-144.05;26.60;125687.94;5820101;24;20403;-91
2022/06/12 11:31:50;;;;;;;;;;;29.00;50.50;;;-144.05;25.45;125687.94;6014053;23;20310;-87
2022/06/12 11:35:46;;;;;;;;;;;29.00;46.70;;;-144.05;25.50;125687.94;6001724;23;20001;-88
2022/06/12 11:43:02;;;;;;;;;;;28.50;47.90;;;-144.05;28.18;125687.94;6128889;23;19963;-88
2022/06/12 21:29:59;;;;;;;3.65;1.33;;;16.00;99.90;;;-144.05;44.91;125687.94;6173702;22;1281921;-86
2022/06/12 21:32:25;;;;;;;5.32;1.00;;;15.90;99.90;;;-144.05;45.11;125687.94;6220506;23;20091;-87
2022/06/12 21:34:52;;;;;;;6.28;1.35;;;15.90;99.90;;;-144.05;45.14;125687.94;6220737;23;20008;-86
2022/06/12 21:37:18;;;;;;;3.47;1.30;;;15.80;99.90;;;-144.05;45.31;125687.94;6221204;23;20091;-85
2022/06/12 21:39:44;;;;;;;2.95;1.30;;;15.70;99.90;;;-144.05;45.15;125687.94;6216570;23;20001;-86
2022/06/12 21:42:11;;;;;;;2.28;1.17;;;15.70;99.90;;;-144.05;45.13;125687.94;6192490;23;20431;-86
2022/06/12 21:44:37;;;;;;;2.67;0.98;;;15.60;99.90;;;-144.05;45.22;125687.94;6191647;23;20378;-85
2022/06/12 21:47:05;;;;;;;3.92;1.20;;;15.60;99.90;;;-144.05;45.35;125687.94;6191593;23;20016;-87
2022/06/12 21:49:31;;;;;;;3.70;1.40;;;15.50;99.90;;;-144.05;45.37;125687.94;6191040;23;20005;-87
2022/06/12 21:54:42;;;;;;;1.40;0.85;;;15.40;99.90;;;-144.05;45.61;125687.94;6195867;23;20031;-85
2022/06/12 21:57:12;;;;;;;4.20;1.17;;;15.30;99.90;;;-144.05;45.99;125687.94;6197396;23;20443;-87
2022/06/12 21:59:43;;;;;;;3.45;1.17;;;15.20;99.90;;;-144.05;46.52;125687.94;6197285;23;20009;-86
2022/06/12 22:02:13;;;;;;;6.60;1.35;;;15.10;99.90;;;-144.05;47.39;125687.94;6197995;23;20016;-85
2022/06/12 22:04:40;;;;;;;2.92;1.17;;;15.00;99.90;;;-144.05;47.73;125687.94;6197657;23;20443;-83
2022/06/12 22:07:10;;;;;;;2.25;1.10;;;14.90;99.90;;;-144.05;48.75;125687.94;6196684;23;20005;-87
2022/06/12 22:09:37;;;;;;;4.25;1.42;;;14.80;99.90;;;-144.05;49.38;125687.94;6192761;23;20009;-88
2022/06/12 22:12:04;;;;;;;3.25;1.10;;;14.70;99.90;;;-144.05;49.67;125687.94;6194270;23;20096;-87
2022/06/12 22:14:32;;;;;;;5.10;1.20;;;14.70;99.90;;;-144.05;49.97;125687.94;6193912;23;20013;-85
2022/06/12 22:16:59;;;;;;;4.05;1.33;;;14.70;99.90;;;-144.05;49.63;125687.94;6194324;23;20032;-86
2022/06/12 22:19:26;;;;;;;6.45;1.30;;;14.70;99.90;;;-144.05;49.42;125687.94;6194274;23;20008;-85
2022/06/12 22:21:52;;;;;;;5.32;1.20;;;14.70;99.90;;;-144.05;49.10;125687.94;6193938;23;20009;-86
2022/06/12 22:24:18;;;;;;;7.00;1.52;;;14.80;99.90;;;-144.05;49.03;125687.94;6193431;23;20084;-83
2022/06/12 22:26:45;;;;;;;5.63;1.50;;;14.80;99.90;;;-144.05;49.04;125687.94;6195962;23;20032;-86
2022/06/12 22:29:11;;;;;;;3.53;1.42;;;14.90;99.90;;;-144.05;49.14;125687.94;6196059;23;20108;-85
2022/06/12 22:31:39;;;;;;;3.78;1.20;;;14.90;99.90;;;-144.05;49.20;125687.94;6194627;23;20016;-85
2022/06/12 22:34:06;;;;;;;2.60;1.25;;;15.00;99.90;;;-144.05;49.61;125687.94;6192142;23;20020;-82
2022/06/12 22:36:34;;;;;;;6.43;1.80;;;15.00;99.90;;;-144.05;49.67;125687.94;6192595;23;20013;-83
2022/06/12 22:39:00;;;;;;;4.47;1.33;;;14.90;99.90;;;-144.05;49.79;125687.94;6179252;23;20088;-84
2022/06/12 22:41:26;;;;;;;3.80;1.55;;;14.80;99.90;;;-144.05;50.19;125687.94;6161768;23;20005;-82
2022/06/12 22:43:52;;;;;;;6.55;1.60;;;14.80;99.90;;;-144.05;50.46;125687.94;6161492;23;20515;-83
2022/06/12 22:46:21;;;;;;;6.05;1.80;;;14.80;99.90;;;-144.05;50.80;125687.94;6161906;23;20056;-83
2022/06/12 22:48:50;;;;;;;4.65;1.70;;;14.70;99.90;;;-144.05;51.10;125687.94;6161156;23;20040;-83
2022/06/12 22:51:16;;;;;;;4.60;1.50;;;14.50;99.90;;;-144.05;51.61;125687.94;6162994;23;20034;-84
2022/06/12 22:53:44;;;;;;;3.95;1.40;;;14.50;99.90;;;-144.05;52.14;125687.94;6139023;23;20065;-83
2022/06/12 22:56:10;;;;;;;4.88;2.13;;;14.40;99.90;;;-144.05;52.44;125687.94;6180181;23;20040;-83
2022/06/12 22:58:37;;;;;;;5.30;1.92;;;14.30;99.90;;;-144.05;52.77;125687.94;6180407;23;20021;-84
2022/06/12 23:01:07;;;;;;;2.65;1.42;;;14.30;99.90;;;-144.05;53.01;125687.94;6168002;23;20082;-86
2022/06/12 23:03:34;;;;;;;5.15;1.63;;;14.20;99.90;;;-144.05;53.35;125687.94;6163944;23;20020;-87
2022/06/12 23:06:01;;;;;;;4.57;1.60;;;14.10;99.90;;;-144.05;53.79;125687.94;6169205;23;20085;-88
2022/06/12 23:08:28;;;;;;;3.80;2.00;;;14.00;99.90;;;-144.05;53.98;125687.94;6163121;23;20005;-86
2022/06/12 23:10:54;;;;;;;6.57;1.98;;;13.90;99.90;;;-144.05;54.51;125687.94;6161993;23;20017;-88
2022/06/12 23:13:22;;;;;;;5.25;1.83;;;13.90;99.90;;;-144.05;54.85;125687.94;6160844;23;20491;-88
2022/06/12 23:15:49;;;;;;;5.85;2.28;;;13.80;99.90;;;-144.05;55.29;125687.94;6161193;23;20009;-88
2022/06/12 23:18:15;;;;;;;3.72;1.50;;;13.80;99.90;;;-144.05;55.83;125687.94;6157869;23;20009;-89
2022/06/12 23:20:41;;;;;;;6.63;2.10;;;13.70;99.90;;;-144.05;56.04;125687.94;6160385;23;20005;-86
2022/06/12 23:23:27;;;;;;;5.10;2.00;;;13.70;99.90;;;-144.05;56.50;125687.94;6159381;23;20014;-87
2022/06/12 23:26:19;;;;;;;6.88;1.73;;;13.60;99.90;;;-144.05;57.12;125687.94;6159109;23;20096;-90
2022/06/12 23:28:51;;;;;;;7.18;2.20;;;13.50;99.90;;;-144.05;57.56;125687.94;6162749;23;20031;-83
2022/06/12 23:31:33;;;;;;;6.28;1.55;;;13.50;99.90;;;-144.05;58.04;125687.94;6179495;23;20044;-86
2022/06/12 23:34:00;;;;;;;4.75;2.05;;;13.40;99.90;;;-144.05;58.35;125687.94;6180081;23;20033;-85
2022/06/12 23:36:27;;;;;;;5.97;2.03;;;13.30;99.90;;;-144.05;58.65;125687.94;6179551;23;20006;-87
2022/06/12 23:38:53;;;;;;;3.70;1.67;;;13.30;99.90;;;-144.05;59.12;125687.94;6171848;23;20064;-88
2022/06/12 23:41:19;;;;;;;6.72;2.65;;;13.20;99.90;;;-144.05;59.67;125687.94;6159952;23;20009;-87
2022/06/12 23:43:45;;;;;;;4.53;1.90;;;13.10;99.90;;;-144.05;60.24;125687.94;6157379;23;20010;-85
2022/06/12 23:46:16;;;;;;;3.97;2.10;;;13.00;99.90;;;-144.05;60.82;125687.94;6160116;23;20531;-88
2022/06/12 23:48:45;;;;;;;7.75;2.03;;;12.90;99.90;;;-144.05;61.09;125687.94;6171936;23;20219;-86
2022/06/12 23:51:12;;;;;;;6.85;2.08;;;12.80;99.90;;;-144.05;61.45;125687.94;6178115;23;20060;-87
2022/06/12 23:53:40;;;;;;;6.05;2.45;;;12.80;99.90;;;-144.05;61.92;125687.94;6173902;23;20006;-85
2022/06/12 23:56:12;;;;;;;5.88;1.75;;;12.70;99.90;;;-144.05;62.48;125687.94;6158101;23;20001;-89
2022/06/12 23:58:40;;;;;;;3.78;2.15;;;12.60;99.90;;;-144.05;62.75;125687.94;6156559;23;20009;-86
